Marion, IN (46953)

3:07 PM EDT on September 01, 2015 (GMT -0400)
KB9CQZ Brinker Heights | | Change Station
CLOSE
Current Station
Personal Weather Station
Location: Marion, IN
Elevation: 890 ft
Nearby Weather Stations

Elev 890 ft 40.57 °N, 85.64 °W | Updated 6 seconds ago

Scattered Clouds
Scattered Clouds
74.4 °F
Feels Like 75 °F
N
0.0
Wind Variable Wind from West
Gusts 0.0 mph

Today
High -- | Low -- °F
--% Chance of Precip.
Yesterday
High -- | Low -- °F
Precip. -- in
7:09 AM 8:15 PM
Waning Gibbous, 87% visible
Pressure 30.12 in
Visibility -9999.0 miles
Clouds Scattered Clouds 3000 ft
Scattered Clouds 3400 ft
Heat Index 75 °F
Dew Point 68 °F
Humidity 79%
Rainfall 0.00 in
Snow Depth Not available.
UV 0.0 out of 12
Pollen 10.20 out of 12
Air Quality Not available.
Flu Activity Not available.
METAR KMZZ 011855Z AUTO 19006KT SCT030 SCT034 20/17 A3012 RMK AO2 P0002 T02010166 PWINO
Pressure 30.12 in
Visibility -9999.0 miles
Clouds Scattered Clouds 3000 ft
Scattered Clouds 3400 ft
Heat Index 75 °F
Dew Point 68 °F
Humidity 79%
Rainfall 0.00 in
Snow Depth Not available.
UV 0.0 out of 12
Pollen 10.20 out of 12
Air Quality Not available.
Flu Activity Not available.
METAR KMZZ 011855Z AUTO 19006KT SCT030 SCT034 20/17 A3012 RMK AO2 P0002 T02010166 PWINO

10-Day Weather Forecast

×

Almanac

Astronomy

Sep. 01, 2015 Rise Set
Actual Time
Civil Twilight
Nautical Twilight
Astronomical Twilight
Moon
Length of Visible Light
Length of Day
Tomorrow will be .
, % of the Moon is Illuminated

Today's Extremes

State Highs State Lows

Community

WunderPhotos

Upload Photos

1,851,596 photos uploaded!

WunderBlogs® & News

Nearby

Air Quality

  Air Quality AQ Index Pollutant
Not available.

Snow Depth

Station Depth Elevation

Earthquake Activity

City Distance Mag. Time & Date
Minimum magnitude displayed is 2.5.

Coastal Water Temperatures

Place Temperature

Stations

Nearby Weather Stations

Station Location Temp. Windchill Dew Point Humidity Wind Precip. Elev Updated Type